createdAt,value
2019-02-23T11:45:23.871Z,41.01
2019-02-23T11:47:52.372Z,43.69
2019-02-23T11:50:20.859Z,43.38
2019-02-23T11:52:49.387Z,44.72
2019-02-23T11:55:17.898Z,45.36
2019-02-23T11:57:46.376Z,45.68
2019-02-23T12:00:14.928Z,45.82
2019-02-23T12:02:52.168Z,45.92
2019-02-23T12:05:13.645Z,45.96
2019-02-23T12:07:42.135Z,46.03
2019-02-23T12:10:11.699Z,46.06
2019-02-23T12:12:40.204Z,46.12
2019-02-23T12:15:08.848Z,46.10
2019-02-23T12:17:37.348Z,46.07
2019-02-23T12:20:05.865Z,46.02
2019-02-23T12:22:34.342Z,45.96
2019-02-23T12:25:02.869Z,45.85
2019-02-23T12:27:31.391Z,45.79
2019-02-23T12:29:59.883Z,45.76
2019-02-23T12:32:28.703Z,45.10
2019-02-23T12:34:57.196Z,45.39
2019-02-23T12:37:25.705Z,45.48
2019-02-23T12:39:54.192Z,45.55
2019-02-23T12:42:22.697Z,45.55
2019-02-23T12:44:51.208Z,45.54
2019-02-23T12:47:19.725Z,45.53
2019-02-23T12:49:48.205Z,43.65
2019-02-23T12:52:16.741Z,44.62
2019-02-23T12:54:45.260Z,45.04
2019-02-23T12:57:13.738Z,45.32
2019-02-23T12:59:42.489Z,45.51
2019-02-23T13:02:10.975Z,45.64
2019-02-23T13:04:39.476Z,45.71
2019-02-23T13:07:08.008Z,45.66
2019-02-23T13:09:40.296Z,45.58
2019-02-23T13:12:15.785Z,43.16
2019-02-23T13:15:06.960Z,44.31
2019-02-23T13:17:54.201Z,44.68
2019-02-23T13:20:45.321Z,44.75
2019-02-23T13:23:38.757Z,44.80
2019-02-23T13:26:17.089Z,44.42
2019-02-23T13:29:03.939Z,44.08
2019-02-23T13:31:46.204Z,44.06
2019-02-23T13:34:30.646Z,43.20
2019-02-23T13:37:07.662Z,43.73
2019-02-23T13:40:03.499Z,43.74
2019-02-23T13:42:55.076Z,43.53
2019-02-23T13:45:45.320Z,43.33
2019-02-23T13:48:58.487Z,42.89
2019-02-23T13:51:50.533Z,42.71
2019-02-23T13:55:05.983Z,42.67
2019-02-23T13:58:19.212Z,42.73
2019-02-23T14:01:21.604Z,42.89
2019-02-23T14:03:56.742Z,43.04
2019-02-23T14:06:44.919Z,43.07
2019-02-23T14:09:50.568Z,43.13
2019-02-23T14:12:50.465Z,43.07
2019-02-23T14:15:55.169Z,42.97
2019-02-23T14:21:14.470Z,42.77
2019-02-23T14:24:21.755Z,42.54
2019-02-23T14:30:36.238Z,42.46
2019-02-23T14:33:39.063Z,49.35
2019-02-23T14:36:32.840Z,55.67
2019-02-23T14:39:38.135Z,57.79
2019-02-23T14:42:57.924Z,56.96
2019-02-23T14:51:41.668Z,54.74
2019-02-23T14:55:00.744Z,53.73
2019-02-23T14:58:11.952Z,53.02
2019-02-23T15:01:33.683Z,52.23
2019-02-23T15:04:34.110Z,51.43
2019-02-23T15:07:32.049Z,50.79
2019-02-23T15:10:29.038Z,50.31
2019-02-23T15:13:12.582Z,49.98
2019-02-23T15:16:17.602Z,49.51
2019-02-23T15:19:30.857Z,49.06
2019-02-23T15:28:35.769Z,48.21
2019-02-23T15:31:32.121Z,47.90
2019-02-23T15:34:48.930Z,47.51
2019-02-23T15:38:04.764Z,47.52
2019-02-23T15:41:03.729Z,47.53
2019-02-23T15:43:58.305Z,47.63
2019-02-23T15:47:24.173Z,47.57
2019-02-23T15:50:26.866Z,47.53
2019-02-23T15:52:55.735Z,47.56
2019-02-23T15:55:26.509Z,47.49
2019-02-23T15:57:55.307Z,47.45
2019-02-23T16:00:23.995Z,47.58
2019-02-23T16:02:52.749Z,47.59
2019-02-23T16:05:53.003Z,47.65
2019-02-23T16:08:22.110Z,47.70
2019-02-23T16:10:56.137Z,47.67
2019-02-23T16:13:25.461Z,47.65
2019-02-23T16:15:54.315Z,47.62
2019-02-23T16:18:24.345Z,47.71
2019-02-23T16:20:58.843Z,47.86
2019-02-23T16:23:35.220Z,47.95
2019-02-23T16:26:23.028Z,47.91
2019-02-23T16:28:55.706Z,47.84
2019-02-23T16:31:43.022Z,47.97
2019-02-23T16:34:20.923Z,48.44
2019-02-23T16:36:53.659Z,48.88
2019-02-23T16:39:22.858Z,49.21
2019-02-23T16:41:51.809Z,49.45
2019-02-23T16:44:20.565Z,49.64
2019-02-23T16:46:49.642Z,49.80
2019-02-23T16:49:18.387Z,49.99
2019-02-23T16:51:47.330Z,50.12
2019-02-23T16:54:16.388Z,50.28
2019-02-23T16:56:45.254Z,50.41
2019-02-23T16:59:16.971Z,50.59
2019-02-23T17:01:47.260Z,50.70
2019-02-23T17:04:16.041Z,50.82
2019-02-23T17:06:45.235Z,50.98
2019-02-23T17:09:14.063Z,51.05
2019-02-23T17:11:46.328Z,51.20
2019-02-23T17:14:19.539Z,51.29
2019-02-23T17:16:47.015Z,51.39
2019-02-23T17:19:15.848Z,51.47
2019-02-23T17:21:44.666Z,51.50
2019-02-23T17:24:13.431Z,51.63
2019-02-23T17:26:46.083Z,51.78
2019-02-23T17:29:15.158Z,51.81
2019-02-23T17:31:45.994Z,51.94
2019-02-23T17:34:15.107Z,52.05
2019-02-23T17:36:45.104Z,52.18
2019-02-23T17:39:15.061Z,52.28
2019-02-23T17:41:44.867Z,52.41
2019-02-23T17:44:17.275Z,52.46
2019-02-23T17:46:50.237Z,52.49
2019-02-23T17:49:25.666Z,52.51
2019-02-23T17:51:53.273Z,52.57
2019-02-23T17:54:22.394Z,52.63
2019-02-23T17:56:55.758Z,52.64
2019-02-23T17:59:24.742Z,52.69
2019-02-23T18:01:53.535Z,52.73
2019-02-23T18:04:22.405Z,52.79
2019-02-23T18:06:52.222Z,52.85
2019-02-23T18:09:21.129Z,52.91
2019-02-23T18:11:52.758Z,52.95
2019-02-23T18:14:21.838Z,53.02
2019-02-23T18:16:50.785Z,53.07
2019-02-23T18:19:19.585Z,53.16
2019-02-23T18:21:48.352Z,53.20
2019-02-23T18:24:17.644Z,53.26
2019-02-23T18:26:46.558Z,53.30
2019-02-23T18:29:18.360Z,53.39
2019-02-23T18:31:47.236Z,53.47
2019-02-23T18:34:17.361Z,53.49
2019-02-23T18:36:46.420Z,53.55
2019-02-23T18:39:15.333Z,53.61
2019-02-23T18:41:47.286Z,53.65
2019-02-23T18:44:16.251Z,53.73
2019-02-23T18:46:45.158Z,53.82
2019-02-23T18:49:14.085Z,53.87
2019-02-23T18:51:42.920Z,53.95
2019-02-23T18:54:11.756Z,54.00
2019-02-23T18:56:40.638Z,54.05
2019-02-23T18:59:09.481Z,54.11
2019-02-23T19:01:38.350Z,54.17
2019-02-23T19:04:07.443Z,54.20
2019-02-23T19:06:40.231Z,54.28
2019-02-23T19:09:09.011Z,54.35
2019-02-23T19:11:39.322Z,54.41
2019-02-23T19:14:08.330Z,54.48
2019-02-23T19:16:39.493Z,54.53
2019-02-23T19:19:11.987Z,54.61
2019-02-23T19:21:42.023Z,54.64
2019-02-23T19:24:10.815Z,54.69
2019-02-23T19:26:40.863Z,54.76
2019-02-23T19:29:12.250Z,54.82
2019-02-23T19:31:41.111Z,54.90
2019-02-23T19:34:10.174Z,54.95
2019-02-23T19:36:42.907Z,54.97
2019-02-23T19:39:11.937Z,55.06
2019-02-23T19:41:45.214Z,55.13
2019-02-23T19:44:14.093Z,55.21
2019-02-23T19:46:51.421Z,55.26
2019-02-23T19:49:21.575Z,55.28
2019-02-23T19:51:50.409Z,55.34
2019-02-23T19:54:19.569Z,55.37
2019-02-23T19:56:48.410Z,55.44
2019-02-23T19:59:17.541Z,55.49
2019-02-23T20:01:46.420Z,55.54
2019-02-23T20:04:16.388Z,55.56
2019-02-23T20:06:45.252Z,55.62
2019-02-23T20:09:15.605Z,55.67
2019-02-23T20:11:44.434Z,55.70
2019-02-23T20:14:13.250Z,55.76
2019-02-23T20:16:42.282Z,55.79
2019-02-23T20:19:11.128Z,55.84
2019-02-23T20:21:39.927Z,55.91
2019-02-23T20:24:12.681Z,55.96
2019-02-23T20:26:42.630Z,55.99
2019-02-23T20:29:15.501Z,56.02
2019-02-23T20:31:44.975Z,56.07
2019-02-23T20:34:14.081Z,56.10
2019-02-23T20:36:44.085Z,56.19
2019-02-23T20:39:13.959Z,56.19
2019-02-23T20:41:42.804Z,56.20
2019-02-23T20:44:11.751Z,56.24
2019-02-23T20:46:40.784Z,56.27
2019-02-23T20:49:09.687Z,56.29
2019-02-23T20:51:38.803Z,56.32
2019-02-23T20:54:07.603Z,56.34
2019-02-23T20:56:36.627Z,56.37
2019-02-23T20:59:05.579Z,56.41
2019-02-23T21:01:34.441Z,56.48
2019-02-23T21:04:03.472Z,56.49
2019-02-23T21:06:32.364Z,56.53
2019-02-23T21:09:02.219Z,56.57
2019-02-23T21:11:31.133Z,56.58
2019-02-23T21:14:00.007Z,56.62
2019-02-23T21:16:30.144Z,56.66
2019-02-23T21:18:59.566Z,56.70
2019-02-23T21:21:28.405Z,56.75
2019-02-23T21:24:01.184Z,56.77
2019-02-23T21:26:31.462Z,56.81
2019-02-23T21:29:00.338Z,56.85
2019-02-23T21:31:29.140Z,56.88
2019-02-23T21:33:58.326Z,56.91
2019-02-23T21:36:28.398Z,56.93
2019-02-23T21:38:57.400Z,56.96
2019-02-23T21:41:26.469Z,57.00
2019-02-23T21:43:55.371Z,57.03
2019-02-23T21:46:26.756Z,57.08
2019-02-23T21:48:55.370Z,57.08
2019-02-23T21:51:28.748Z,57.11
2019-02-23T21:54:00.539Z,57.13
2019-02-23T21:56:30.838Z,57.15
2019-02-23T21:59:03.550Z,57.17
2019-02-23T22:01:40.531Z,57.23
2019-02-23T22:04:12.099Z,57.21
2019-02-23T22:06:40.923Z,57.22
2019-02-23T22:09:17.854Z,57.25
2019-02-23T22:11:49.192Z,57.28
2019-02-23T22:14:25.759Z,57.30
2019-02-23T22:16:54.596Z,57.30
2019-02-23T22:19:29.313Z,57.33
2019-02-23T22:21:57.870Z,57.35
2019-02-23T22:24:30.683Z,57.33
2019-02-23T22:27:08.514Z,57.36
2019-02-23T22:29:40.662Z,57.40
2019-02-23T22:32:17.209Z,57.38
2019-02-23T22:34:48.202Z,57.38
2019-02-23T22:37:23.573Z,57.38
2019-02-23T22:40:01.209Z,57.37
2019-02-23T22:42:34.072Z,57.38
2019-02-23T22:45:06.606Z,57.39
2019-02-23T22:47:45.090Z,57.39
2019-02-23T22:50:14.847Z,57.38
2019-02-23T22:52:46.435Z,57.43
2019-02-23T22:55:27.167Z,57.44
2019-02-23T22:57:56.586Z,57.45
2019-02-23T23:00:30.997Z,57.48
2019-02-23T23:03:07.721Z,57.49
2019-02-23T23:05:53.528Z,57.52
2019-02-23T23:08:22.413Z,57.54
2019-02-23T23:10:51.300Z,57.53
2019-02-23T23:13:21.022Z,57.53
2019-02-23T23:15:52.175Z,57.55
2019-02-23T23:18:27.897Z,57.60
2019-02-23T23:20:58.580Z,57.65
2019-02-23T23:23:28.037Z,57.66
2019-02-23T23:26:06.436Z,57.70
2019-02-23T23:28:36.882Z,57.70
2019-02-23T23:31:05.814Z,57.74
2019-02-23T23:33:39.477Z,57.74
2019-02-23T23:36:09.901Z,57.76
2019-02-23T23:38:41.724Z,57.79
2019-02-23T23:41:11.166Z,57.84
2019-02-23T23:43:49.120Z,57.88
2019-02-23T23:46:19.842Z,57.91
2019-02-23T23:48:54.389Z,57.94
2019-02-23T23:51:28.112Z,57.96
2019-02-23T23:54:04.616Z,57.98
2019-02-23T23:56:33.739Z,57.99
2019-02-23T23:59:07.177Z,58.07
